This is the latest recevied weather packets stored in our database for station/object EA5GTE-12. If no packets are shown the sender has not sent any weather packets the latest 10 day(s).
| Time | Temp. | Humidity | Pressure | Rain* | Wind** | Luminosity | Snow |
|---|---|---|---|---|---|---|---|
| 1777954946 | 6.67° C | 100% | 936.2 hPa | - | - | - | - |
| 1777954046 | 6.67° C | 100% | 936.2 hPa | - | - | - | - |
| 1777953146 | 6.67° C | 100% | 936.2 hPa | - | - | - | - |
| 1777952246 | 7.22° C | 100% | 936.2 hPa | - | - | - | - |
| 1777951346 | 7.22° C | 100% | 936.3 hPa | - | - | - | - |
| 1777950446 | 7.78° C | 100% | 936.2 hPa | - | - | - | - |
| 1777949546 | 7.78° C | 100% | 936.2 hPa | - | - | - | - |
| 1777948645 | 8.33° C | 100% | 936.2 hPa | - | - | - | - |
| 1777947745 | 8.33° C | 100% | 936.2 hPa | - | - | - | - |
| 1777946845 | 8.33° C | 100% | 936.2 hPa | - | - | - | - |
| 1777945944 | 8.33° C | 100% | 936.3 hPa | - | - | - | - |
| 1777945044 | 8.33° C | 100% | 936.4 hPa | - | - | - | - |
| 1777944143 | 8.89° C | 100% | 936.4 hPa | - | - | - | - |
| 1777942349 | 8.89° C | 100% | 936.6 hPa | - | - | - | - |
| 1777941448 | 8.89° C | 100% | 936.7 hPa | - | - | - | - |
| 1777940548 | 9.44° C | 100% | 936.6 hPa | - | - | - | - |
| 1777939647 | 10° C | 100% | 936.6 hPa | - | - | - | - |
| 1777938747 | 10° C | 97% | 936.9 hPa | - | - | - | - |
| 1777937847 | 10.56° C | 91% | 936.9 hPa | - | - | - | - |
| 1777936947 | 10.56° C | 90% | 936.8 hPa | - | - | - | - |
| 1777936047 | 10.56° C | 90% | 936.7 hPa | - | - | - | - |
| 1777935147 | 11.67° C | 85% | 936.6 hPa | - | - | - | - |
| 1777934247 | 11.67° C | 85% | 936.7 hPa | - | - | - | - |
| 1777933346 | 12.22° C | 75% | 936.6 hPa | - | - | - | - |
| 1777932446 | 11.67° C | 87% | 936.7 hPa | - | - | - | - |
* Rain since midnight (hover to see other rain measurements)
** Current wind speed in m/s (hover to see current wind gust speed)